Time;durP1;ratioP1;P1;durP2;ratioP2;P2;SDS_P1;SDS_P2;PMS_P1;PMS_P2;Temp;Humidity;BMP_temperature;BMP_pressure;BME280_temperature;BME280_humidity;BME280_pressure;Samples;Min_cycle;Max_cycle;Signal;HPM_P1;HPM_P2
2023/03/16 00:00:26;;;;;;;22.70;11.38;;;;;;;-1.99;100.00;99288.78;5010489;28;20375;-65
2023/03/16 00:02:52;;;;;;;19.17;10.45;;;;;;;-2.03;100.00;99282.00;5017971;28;20454;-65
2023/03/16 00:05:18;;;;;;;21.50;10.68;;;;;;;-2.03;100.00;99286.47;5016270;28;20041;-65
2023/03/16 00:07:43;;;;;;;20.08;9.93;;;;;;;-2.16;100.00;99293.63;5015603;28;20144;-66
2023/03/16 00:10:11;;;;;;;21.35;9.57;;;;;;;-2.28;100.00;99293.56;5012010;28;20037;-65
2023/03/16 00:12:37;;;;;;;19.98;9.65;;;;;;;-2.26;100.00;99281.00;5016753;28;20057;-71
2023/03/16 00:15:03;;;;;;;21.92;9.68;;;;;;;-2.24;100.00;99278.28;5009980;28;20436;-71
2023/03/16 00:17:29;;;;;;;23.00;10.23;;;;;;;-2.28;100.00;99282.94;5012986;28;20053;-71
2023/03/16 00:19:56;;;;;;;20.15;9.43;;;;;;;-2.39;100.00;99285.50;5015521;28;20075;-71
2023/03/16 00:22:29;;;;;;;16.27;8.50;;;;;;;-2.50;100.00;99286.28;5024293;28;20029;-71
2023/03/16 00:24:55;;;;;;;19.35;9.30;;;;;;;-2.42;100.00;99288.38;5015511;28;20580;-71
2023/03/16 00:27:21;;;;;;;20.02;8.38;;;;;;;-2.32;100.00;99283.28;5014475;28;20034;-71
2023/03/16 00:29:48;;;;;;;18.75;8.85;;;;;;;-2.25;100.00;99287.19;5017475;28;20026;-71
2023/03/16 00:32:19;;;;;;;19.17;9.50;;;;;;;-2.12;100.00;99292.41;5037855;28;20041;-71
2023/03/16 00:34:46;;;;;;;19.77;9.00;;;;;;;-2.22;100.00;99289.63;5024673;28;20056;-71
2023/03/16 00:37:16;;;;;;;18.05;8.40;;;;;;;-2.32;100.00;99296.53;5028377;28;20032;-71
2023/03/16 00:39:42;;;;;;;18.60;8.85;;;;;;;-2.33;100.00;99284.22;5016491;28;20029;-71
2023/03/16 00:42:09;;;;;;;16.77;8.13;;;;;;;-2.25;100.00;99281.88;5011698;28;20037;-71
2023/03/16 00:44:37;;;;;;;21.50;9.75;;;;;;;-2.19;100.00;99281.44;5014616;28;20040;-72
2023/03/16 00:47:04;;;;;;;18.20;9.25;;;;;;;-2.30;100.00;99274.25;5017141;28;20473;-71
2023/03/16 00:49:33;;;;;;;22.95;10.90;;;;;;;-2.28;100.00;99275.00;5017647;28;20470;-71
2023/03/16 00:52:03;;;;;;;25.30;11.20;;;;;;;-2.61;100.00;99225.28;5045151;22;20037;-78
2023/03/16 00:54:31;;;;;;;23.58;11.63;;;;;;;-2.32;100.00;99257.63;5018152;28;20029;-79
2023/03/16 00:56:57;;;;;;;24.00;10.63;;;;;;;-2.49;100.00;99242.06;5024028;28;20091;-78
2023/03/16 00:59:25;;;;;;;22.75;10.38;;;;;;;-2.39;100.00;99264.31;5024392;28;20037;-79
2023/03/16 01:01:51;;;;;;;23.77;11.70;;;;;;;-2.45;100.00;99270.91;5027187;28;20038;-78
2023/03/16 01:04:17;;;;;;;22.40;10.95;;;;;;;-2.28;100.00;99280.31;5025349;28;20043;-78
2023/03/16 01:06:43;;;;;;;27.70;13.15;;;;;;;-2.65;100.00;99226.44;5014692;28;20033;-78
2023/03/16 01:09:09;;;;;;;29.02;13.52;;;;;;;-2.37;100.00;99256.25;5019272;28;20033;-78
2023/03/16 01:11:34;;;;;;;26.48;13.30;;;;;;;-2.38;100.00;99266.03;5022209;28;20151;-78
2023/03/16 01:14:00;;;;;;;28.23;12.70;;;;;;;-2.33;100.00;99278.91;5023415;28;20052;-78
2023/03/16 01:16:25;;;;;;;31.08;12.88;;;;;;;-2.40;100.00;99262.63;5023435;28;20116;-79
2023/03/16 01:18:51;;;;;;;36.50;14.02;;;;;;;-2.43;100.00;99270.78;5021651;28;20438;-79
2023/03/16 01:21:17;;;;;;;25.75;12.20;;;;;;;-2.80;100.00;99212.50;5036803;28;20033;-79
2023/03/16 01:23:43;;;;;;;32.22;13.55;;;;;;;-3.32;100.00;99127.03;5035558;28;20450;-79
2023/03/16 01:26:08;;;;;;;26.00;12.70;;;;;;;-2.39;100.00;99279.38;5025310;28;20073;-78
2023/03/16 01:28:34;;;;;;;31.20;13.07;;;;;;;-2.43;100.00;99257.56;5024061;28;20089;-79
2023/03/16 01:31:06;;;;;;;27.65;13.45;;;;;;;-2.55;100.00;99238.06;5023584;28;20095;-79
2023/03/16 01:33:32;;;;;;;34.28;15.38;;;;;;;-2.35;100.00;99265.78;5025529;28;20037;-80
2023/03/16 01:36:10;;;;;;;29.00;13.07;;;;;;;-2.44;100.00;99269.97;5023305;28;20038;-80
2023/03/16 01:38:35;;;;;;;29.90;14.25;;;;;;;-2.99;100.00;99191.75;5040057;28;20044;-80
2023/03/16 01:41:01;;;;;;;33.03;13.07;;;;;;;-2.53;100.00;99270.59;5038762;28;20022;-79
2023/03/16 01:43:28;;;;;;;25.50;12.00;;;;;;;-2.53;100.00;99265.31;5048666;28;20013;-80
2023/03/16 01:46:03;;;;;;;26.10;11.13;;;;;;;-2.53;100.00;99256.50;5038651;28;20064;-78
2023/03/16 01:48:36;;;;;;;35.95;12.98;;;;;;;-2.68;100.00;99242.53;5023141;28;20029;-79
2023/03/16 01:51:06;;;;;;;33.28;12.05;;;;;;;-2.53;100.00;99252.06;5024198;28;20041;-79
2023/03/16 01:53:32;;;;;;;33.45;14.13;;;;;;;-2.79;100.00;99202.75;5027591;28;20035;-79
2023/03/16 01:56:00;;;;;;;37.88;13.77;;;;;;;-3.02;100.00;99169.97;5011425;28;20462;-78
2023/03/16 01:58:27;;;;;;;33.25;13.10;;;;;;;-3.27;100.00;99133.81;5008273;28;20103;-79
2023/03/16 02:00:53;;;;;;;36.58;13.35;;;;;;;-3.02;100.00;99191.97;5037123;28;20093;-78
2023/03/16 02:03:20;;;;;;;30.85;13.43;;;;;;;-2.84;100.00;99213.66;5041229;28;20125;-79
2023/03/16 02:05:55;;;;;;;30.55;13.20;;;;;;;-2.66;100.00;99246.78;5041325;28;20036;-79
2023/03/16 02:08:21;;;;;;;36.42;13.35;;;;;;;-2.69;100.00;99246.16;5024792;28;20036;-78
2023/03/16 02:10:47;;;;;;;32.55;12.80;;;;;;;-2.90;100.00;99220.25;5022897;28;20076;-80
2023/03/16 02:13:13;;;;;;;37.00;12.63;;;;;;;-2.85;100.00;99219.91;5024782;28;20036;-79
2023/03/16 02:15:39;;;;;;;31.00;14.05;;;;;;;-2.90;100.00;99220.25;5016713;28;20060;-80
2023/03/16 02:18:06;;;;;;;32.45;13.15;;;;;;;-3.04;100.00;99196.53;5032942;28;20486;-79
2023/03/16 02:20:55;;;;;;;37.55;13.45;;;;;;;-3.08;100.00;99197.72;5039892;28;20030;-79
2023/03/16 02:23:24;;;;;;;33.40;13.00;;;;;;;-2.75;100.00;99234.22;5028279;28;20541;-81
2023/03/16 02:26:00;;;;;;;25.87;10.77;;;;;;;-2.75;100.00;99230.69;5024024;28;20052;-79
2023/03/16 02:28:48;;;;;;;35.47;17.42;;;;;;;-2.86;100.00;99236.75;5036636;28;20036;-79
2023/03/16 02:31:17;;;;;;;37.00;16.23;;;;;;;-3.23;100.00;99193.47;5038342;28;20384;-79
2023/03/16 02:33:46;;;;;;;39.03;14.73;;;;;;;-2.96;100.00;99230.41;5021305;28;20079;-79
2023/03/16 02:36:13;;;;;;;39.47;15.70;;;;;;;-2.83;100.00;99227.75;5020892;28;20052;-79
2023/03/16 02:38:38;;;;;;;39.78;15.05;;;;;;;-2.89;100.00;99226.38;5005723;28;20680;-79
2023/03/16 02:41:13;;;;;;;34.58;14.40;;;;;;;-2.83;100.00;99230.38;5022165;28;20069;-79
2023/03/16 02:43:42;;;;;;;39.05;13.93;;;;;;;-2.85;100.00;99235.81;5027310;28;20041;-79
2023/03/16 02:46:08;;;;;;;33.47;14.05;;;;;;;-2.82;100.00;99213.56;5018472;28;20106;-79
2023/03/16 02:48:45;;;;;;;37.72;14.75;;;;;;;-2.85;100.00;99214.63;5042033;28;20052;-79
2023/03/16 02:51:11;;;;;;;33.97;13.82;;;;;;;-2.86;100.00;99202.31;5028955;28;20026;-80
2023/03/16 02:53:36;;;;;;;42.05;14.15;;;;;;;-2.89;100.00;99208.69;5029292;28;20083;-80
2023/03/16 02:56:02;;;;;;;37.72;13.57;;;;;;;-3.16;100.00;99176.22;5030462;28;20033;-79
2023/03/16 02:58:29;;;;;;;33.55;13.43;;;;;;;-3.04;100.00;99188.56;5047954;28;20017;-79
2023/03/16 03:00:54;;;;;;;33.75;14.20;;;;;;;-2.89;100.00;99203.38;5026375;28;20060;-79
2023/03/16 03:03:20;;;;;;;40.00;14.18;;;;;;;-2.99;100.00;99193.56;5034273;28;20021;-79
2023/03/16 03:05:46;;;;;;;31.88;13.10;;;;;;;-3.04;100.00;99191.22;5022641;28;20048;-79
2023/03/16 03:08:11;;;;;;;40.10;14.32;;;;;;;-2.86;100.00;99197.03;5020369;28;20021;-79
2023/03/16 03:10:37;;;;;;;32.60;13.30;;;;;;;-3.39;100.00;99114.34;5020205;28;20032;-79
2023/03/16 03:13:02;;;;;;;32.20;13.93;;;;;;;-2.74;100.00;99197.97;5024678;28;20022;-79
2023/03/16 03:15:28;;;;;;;34.10;13.18;;;;;;;-2.98;100.00;99161.69;5020662;28;20036;-80
2023/03/16 03:17:53;;;;;;;41.22;13.48;;;;;;;-2.99;100.00;99186.47;5032452;28;20044;-79
2023/03/16 03:20:18;;;;;;;27.40;12.45;;;;;;;-3.13;100.00;99174.19;5042935;28;20030;-79
2023/03/16 03:22:48;;;;;;;37.78;13.40;;;;;;;-2.71;100.00;99226.88;5025760;28;20037;-79
2023/03/16 03:25:16;;;;;;;35.00;13.70;;;;;;;-2.84;100.00;99218.94;5048901;28;20025;-79
2023/03/16 03:27:42;;;;;;;36.45;14.27;;;;;;;-2.98;100.00;99192.63;5028061;28;20513;-79
2023/03/16 03:30:11;;;;;;;28.25;12.05;;;;;;;-2.86;100.00;99215.56;5032353;28;20021;-79
2023/03/16 03:32:37;;;;;;;31.67;11.75;;;;;;;-3.01;100.00;99193.69;5044050;28;20064;-79
2023/03/16 03:35:03;;;;;;;33.08;12.43;;;;;;;-3.43;100.00;99132.22;5033056;28;20041;-79
2023/03/16 03:37:28;;;;;;;28.63;12.18;;;;;;;-3.30;100.00;99121.63;5029989;28;20048;-79
2023/03/16 03:39:53;;;;;;;28.25;11.02;;;;;;;-3.04;100.00;99170.06;5030014;28;20029;-79
2023/03/16 03:42:19;;;;;;;28.83;11.38;;;;;;;-2.81;100.00;99218.72;5047679;28;20114;-79
2023/03/16 03:44:44;;;;;;;27.55;10.70;;;;;;;-2.78;100.00;99210.56;5035863;28;20490;-79
2023/03/16 03:47:09;;;;;;;26.17;10.65;;;;;;;-3.32;100.00;99131.47;5029665;28;20090;-79
2023/03/16 03:49:35;;;;;;;30.13;10.90;;;;;;;-3.31;100.00;99112.84;5048812;28;20108;-79
2023/03/16 03:52:03;;;;;;;27.42;10.40;;;;;;;-3.10;100.00;99141.38;5046134;28;20405;-79
2023/03/16 03:54:29;;;;;;;28.05;11.10;;;;;;;-2.92;100.00;99177.13;5038833;28;20037;-78
2023/03/16 03:56:54;;;;;;;25.67;10.63;;;;;;;-3.26;100.00;99135.50;5018717;28;20029;-79
2023/03/16 03:59:21;;;;;;;23.73;10.57;;;;;;;-3.36;100.00;99122.06;5033051;28;20026;-79
2023/03/16 04:02:17;;;;;;;25.98;10.85;;;;;;;-2.80;100.00;99183.38;5044616;28;20016;-78
2023/03/16 04:04:43;;;;;;;23.00;10.10;;;;;;;-3.40;100.00;99091.50;5013766;28;20045;-77
2023/03/16 04:07:09;;;;;;;24.35;10.40;;;;;;;-3.04;100.00;99163.91;5010894;28;20121;-76
2023/03/16 04:09:35;;;;;;;28.23;11.00;;;;;;;-2.78;100.00;99189.38;5034690;28;20061;-76
2023/03/16 04:12:03;;;;;;;24.48;10.73;;;;;;;-2.76;100.00;99157.50;5018173;28;20417;-78
2023/03/16 04:14:29;;;;;;;24.83;11.02;;;;;;;-2.73;100.00;99134.28;5017405;28;20029;-77
2023/03/16 04:16:55;;;;;;;26.85;9.98;;;;;;;-2.45;100.00;99190.56;5033511;28;20071;-76
2023/03/16 04:19:21;;;;;;;24.33;11.15;;;;;;;-2.48;100.00;99193.44;5015376;28;20021;-77
2023/03/16 04:21:48;;;;;;;30.73;11.43;;;;;;;-2.39;100.00;99192.75;5017286;28;20053;-76
2023/03/16 04:24:13;;;;;;;28.02;11.43;;;;;;;-2.65;100.00;99166.38;5019156;28;20091;-77
2023/03/16 04:26:40;;;;;;;25.42;10.45;;;;;;;-2.92;100.00;99134.78;5018431;28;20414;-78
2023/03/16 04:29:05;;;;;;;30.95;10.73;;;;;;;-2.79;100.00;99184.22;5024340;28;20035;-77
2023/03/16 04:31:31;;;;;;;22.45;9.35;;;;;;;-2.90;100.00;99159.34;5019024;28;20379;-77
2023/03/16 04:33:56;;;;;;;21.90;10.13;;;;;;;-2.94;100.00;99163.16;5036132;28;20398;-77
2023/03/16 04:39:05;;;;;;;24.38;11.43;;;;;;;-2.58;100.00;99173.88;5063161;23;20057;-67
2023/03/16 04:41:31;;;;;;;24.77;10.55;;;;;;;-2.50;100.00;99167.06;5020789;28;20041;-66
2023/03/16 04:43:57;;;;;;;23.92;10.95;;;;;;;-2.45;100.00;99170.22;5009620;28;20048;-66
2023/03/16 04:46:25;;;;;;;24.90;11.15;;;;;;;-2.35;100.00;99169.56;5011883;28;20033;-66
2023/03/16 04:48:51;;;;;;;29.10;10.60;;;;;;;-2.27;100.00;99167.19;5011595;28;20037;-66
2023/03/16 04:51:16;;;;;;;21.15;9.95;;;;;;;-2.37;100.00;99174.13;5021335;28;20040;-67
2023/03/16 04:53:43;;;;;;;21.90;10.57;;;;;;;-2.41;100.00;99170.84;5014362;28;20473;-66
2023/03/16 04:56:16;;;;;;;24.92;9.65;;;;;;;-2.33;100.00;99170.28;5024792;28;20025;-66
2023/03/16 04:58:42;;;;;;;22.52;10.13;;;;;;;-2.44;100.00;99171.06;5027027;28;20354;-66
2023/03/16 05:01:08;;;;;;;18.98;9.02;;;;;;;-2.45;100.00;99175.50;5006455;28;20033;-64
2023/03/16 05:03:33;;;;;;;23.55;9.55;;;;;;;-2.30;100.00;99173.56;5010125;28;20032;-65
2023/03/16 05:05:59;;;;;;;23.50;9.75;;;;;;;-2.28;100.00;99181.38;5014375;28;20036;-64
2023/03/16 05:08:25;;;;;;;21.58;8.70;;;;;;;-2.36;100.00;99176.63;5007447;28;20091;-65
2023/03/16 05:10:50;;;;;;;22.30;9.25;;;;;;;-2.26;100.00;99169.72;5017343;28;20481;-64
2023/03/16 05:13:16;;;;;;;22.15;8.95;;;;;;;-2.08;100.00;99177.25;5018895;28;20032;-65
2023/03/16 05:15:41;;;;;;;21.13;10.45;;;;;;;-2.01;100.00;99179.34;5010667;28;20032;-64
2023/03/16 05:18:07;;;;;;;22.23;9.02;;;;;;;-2.16;100.00;99169.03;5012005;28;20037;-65
2023/03/16 05:20:32;;;;;;;23.40;9.80;;;;;;;-2.06;100.00;99170.88;5028102;28;20022;-65
2023/03/16 05:22:58;;;;;;;17.60;8.45;;;;;;;-2.04;100.00;99168.97;5013128;28;20029;-64
2023/03/16 05:25:23;;;;;;;22.98;9.68;;;;;;;-1.99;100.00;99156.22;5014869;28;20080;-65
2023/03/16 05:27:53;;;;;;;17.88;8.02;;;;;;;-1.88;100.00;99168.69;5013790;28;20496;-65
2023/03/16 05:30:19;;;;;;;22.15;9.13;;;;;;;-1.84;100.00;99169.28;5010603;28;20021;-57
2023/03/16 05:32:45;;;;;;;19.40;9.13;;;;;;;-1.82;100.00;99162.06;5013376;28;20083;-58
2023/03/16 05:35:12;;;;;;;18.95;8.73;;;;;;;-1.89;100.00;99150.22;5015462;28;20139;-58
2023/03/16 05:37:39;;;;;;;21.52;8.65;;;;;;;-1.94;100.00;99157.66;5011294;28;20370;-58
2023/03/16 05:40:16;;;;;;;18.90;9.15;;;;;;;-1.95;100.00;99150.69;5011226;28;20047;-58
2023/03/16 05:42:43;;;;;;;21.83;9.43;;;;;;;-1.83;100.00;99147.97;5010013;28;20036;-58
2023/03/16 05:45:10;;;;;;;19.95;9.32;;;;;;;-1.61;100.00;99148.97;5015557;28;20020;-58
2023/03/16 05:47:36;;;;;;;20.40;8.43;;;;;;;-1.46;100.00;99141.66;5012666;28;20100;-58
2023/03/16 05:50:03;;;;;;;20.60;9.25;;;;;;;-1.35;100.00;99139.00;5010774;28;20159;-58
2023/03/16 05:52:29;;;;;;;19.88;9.07;;;;;;;-1.11;100.00;99150.34;5014717;28;20026;-58
2023/03/16 05:54:55;;;;;;;19.23;8.77;;;;;;;-1.03;100.00;99151.53;5010715;28;20029;-59
2023/03/16 05:57:20;;;;;;;18.27;8.68;;;;;;;-0.96;100.00;99150.09;5006564;28;20018;-58
2023/03/16 05:59:47;;;;;;;18.55;8.50;;;;;;;-0.83;100.00;99145.50;5014075;28;20035;-58
2023/03/16 06:02:12;;;;;;;20.02;9.02;;;;;;;-0.72;100.00;99136.66;5013314;28;20036;-66
2023/03/16 06:04:54;;;;;;;19.58;8.80;;;;;;;-0.58;100.00;99111.63;5009746;28;20409;-66
2023/03/16 06:07:19;;;;;;;13.73;7.45;;;;;;;-0.40;100.00;99126.06;5015469;28;20025;-66
2023/03/16 06:09:45;;;;;;;17.73;7.53;;;;;;;-0.33;100.00;99113.97;5012231;28;20033;-66
2023/03/16 06:12:10;;;;;;;14.82;7.97;;;;;;;-0.18;100.00;99101.22;5012487;28;20503;-66
2023/03/16 06:14:36;;;;;;;14.82;7.30;;;;;;;-0.07;100.00;99095.00;5044422;23;20132;-77
2023/03/16 06:17:05;;;;;;;16.30;8.07;;;;;;;0.28;100.00;99089.34;5019679;28;20045;-79
2023/03/16 06:19:33;;;;;;;16.55;9.13;;;;;;;1.44;100.00;99067.63;5036480;28;20056;-79
2023/03/16 06:22:01;;;;;;;;;;;;;;;3.90;100.00;99065.53;5042526;28;20029;-78
2023/03/16 06:24:26;;;;;;;12.40;6.38;;;;;;;5.62;100.00;99032.38;5033769;28;19951;-78
2023/03/16 06:26:52;;;;;;;12.18;5.15;;;;;;;5.92;100.00;99047.00;5019259;28;20021;-82
2023/03/16 06:29:17;;;;;;;11.48;5.57;;;;;;;5.78;100.00;99030.72;5034367;28;20029;-79
2023/03/16 06:31:42;;;;;;;12.07;6.38;;;;;;;5.41;100.00;99046.25;5036351;28;20385;-76
2023/03/16 06:34:07;;;;;;;8.75;5.18;;;;;;;7.00;100.00;99033.22;5017401;28;20033;-80
2023/03/16 06:36:33;;;;;;;8.88;5.78;;;;;;;8.49;100.00;99039.25;5034167;28;20033;-75
2023/03/16 06:38:58;;;;;;;10.10;5.30;;;;;;;8.93;100.00;99036.56;5032345;28;20030;-75
2023/03/16 06:41:23;;;;;;;8.25;5.03;;;;;;;9.14;100.00;99021.44;5031684;28;20102;-75
2023/03/16 06:43:49;;;;;;;11.93;4.57;;;;;;;10.40;100.00;99040.81;5027729;28;20032;-75
2023/03/16 06:46:14;;;;;;;12.30;4.80;;;;;;;10.97;81.88;99050.56;5015016;28;20021;-75
2023/03/16 06:48:40;;;;;;;13.57;4.75;;;;;;;11.78;80.16;99045.25;5033177;28;20018;-78
2023/03/16 06:51:06;;;;;;;5.78;4.18;;;;;;;12.12;69.26;99048.06;5011704;28;20021;-81
2023/03/16 06:53:32;;;;;;;7.80;4.78;;;;;;;11.72;75.26;99050.69;5017548;28;20127;-81
2023/03/16 06:55:57;;;;;;;8.15;4.55;;;;;;;9.70;74.32;99048.69;5036199;28;20036;-81
2023/03/16 06:58:22;;;;;;;8.23;4.63;;;;;;;10.22;86.83;99038.59;5020201;28;20067;-80
2023/03/16 07:00:48;;;;;;;8.10;4.57;;;;;;;10.93;76.71;99049.31;5021115;28;20060;-80
2023/03/16 07:03:13;;;;;;;8.93;4.70;;;;;;;12.03;67.64;99004.88;5018870;28;20032;-79
2023/03/16 07:05:38;;;;;;;8.68;4.68;;;;;;;13.42;65.11;99026.56;5025251;28;20061;-78
2023/03/16 07:08:04;;;;;;;8.00;4.80;;;;;;;14.50;58.09;99025.59;5024446;28;20017;-78
2023/03/16 07:10:33;;;;;;;8.57;4.70;;;;;;;16.02;54.22;99054.88;5022886;28;20025;-76
2023/03/16 07:12:58;;;;;;;10.43;4.72;;;;;;;15.75;50.00;99041.63;5019908;28;20021;-78
2023/03/16 07:15:25;;;;;;;8.02;5.00;;;;;;;16.70;49.68;99029.00;5041480;28;20041;-78
2023/03/16 07:17:51;;;;;;;6.72;4.97;;;;;;;16.75;49.33;99051.81;5035932;28;20021;-77
2023/03/16 07:20:17;;;;;;;6.80;4.30;;;;;;;18.52;47.41;99053.97;5050438;28;20010;-78
2023/03/16 07:22:42;;;;;;;8.05;5.25;;;;;;;16.82;45.62;99058.03;5058894;28;20024;-79
2023/03/16 07:25:10;;;;;;;6.85;4.60;;;;;;;16.52;48.74;99062.72;5037232;28;20080;-79
2023/03/16 07:27:35;;;;;;;8.25;4.32;;;;;;;15.63;49.00;99047.00;5023386;28;20418;-78
2023/03/16 07:30:03;;;;;;;7.28;4.80;;;;;;;14.65;49.09;99050.63;5040579;28;20029;-78
2023/03/16 07:32:28;;;;;;;11.15;4.80;;;;;;;15.00;50.46;99061.78;5036801;28;20118;-78
2023/03/16 07:34:54;;;;;;;5.72;4.18;;;;;;;15.07;49.79;99067.19;5020745;28;20057;-79
2023/03/16 07:37:20;;;;;;;6.55;4.80;;;;;;;14.10;51.10;99034.91;5041613;28;20021;-80
2023/03/16 07:39:45;;;;;;;7.45;4.60;;;;;;;15.31;49.53;99041.72;5025410;28;20059;-80
2023/03/16 07:42:10;;;;;;;12.57;4.70;;;;;;;14.05;50.64;99058.41;5018415;28;20030;-79
2023/03/16 07:44:36;;;;;;;7.10;4.45;;;;;;;16.18;49.30;99065.97;5018005;28;20096;-80
2023/03/16 07:47:01;;;;;;;7.20;4.30;;;;;;;18.14;44.03;99047.31;5024228;28;20026;-80
2023/03/16 07:49:26;;;;;;;7.70;4.25;;;;;;;18.43;42.90;99064.53;5027992;28;20028;-81
2023/03/16 07:51:52;;;;;;;7.22;4.75;;;;;;;18.84;41.26;99051.53;5012542;28;20579;-74
2023/03/16 07:54:17;;;;;;;7.32;4.40;;;;;;;18.99;41.51;99065.47;5002629;28;21122;-77
2023/03/16 07:56:43;;;;;;;7.65;4.97;;;;;;;18.23;43.02;99043.09;5020686;28;20056;-77
2023/03/16 07:59:08;;;;;;;7.03;4.45;;;;;;;18.00;42.61;99041.34;5021664;28;20427;-74
2023/03/16 08:01:33;;;;;;;7.25;4.35;;;;;;;17.67;42.84;99031.91;5036908;28;20421;-83
2023/03/16 08:04:00;;;;;;;6.53;4.57;;;;;;;18.40;42.00;99041.19;5018797;28;20036;-79
2023/03/16 08:06:25;;;;;;;6.05;4.38;;;;;;;18.48;42.55;99050.09;5012931;28;20435;-79
2023/03/16 08:08:51;;;;;;;8.40;4.82;;;;;;;18.71;42.03;99029.91;5028549;28;20052;-78
2023/03/16 08:11:22;;;;;;;7.13;4.28;;;;;;;18.71;41.72;99046.34;5024674;28;20126;-77
2023/03/16 08:13:55;;;;;;;7.50;4.30;;;;;;;19.19;40.96;99066.81;5024082;28;20013;-83
2023/03/16 08:16:28;;;;;;;6.53;4.60;;;;;;;17.47;42.12;99064.34;5024537;28;20029;-83
2023/03/16 08:18:56;;;;;;;6.55;4.47;;;;;;;17.12;43.53;99035.16;5020883;28;20041;-80
2023/03/16 08:21:22;;;;;;;6.63;4.72;;;;;;;17.43;43.67;99055.78;5022132;28;20093;-81
2023/03/16 08:23:49;;;;;;;8.55;5.20;;;;;;;17.26;44.13;99055.69;5020200;28;20375;-77
2023/03/16 08:26:18;;;;;;;7.88;5.30;;;;;;;17.22;44.01;99053.72;5042460;28;20029;-78
2023/03/16 08:28:45;;;;;;;6.40;4.70;;;;;;;16.35;44.36;99044.28;5023220;28;20032;-80
2023/03/16 08:31:22;;;;;;;6.95;5.07;;;;;;;15.94;46.03;99062.34;5016245;28;20556;-83
2023/03/16 08:33:48;;;;;;;7.85;4.97;;;;;;;16.51;44.53;99022.81;5032205;28;20032;-81
2023/03/16 08:36:16;;;;;;;9.95;5.00;;;;;;;17.74;43.59;99048.22;5014466;28;20022;-87
2023/03/16 08:38:43;;;;;;;9.88;5.13;;;;;;;17.74;43.05;99029.88;5018802;28;20018;-78
2023/03/16 08:41:11;;;;;;;8.43;4.88;;;;;;;18.14;42.01;99036.38;5017710;28;20037;-87
2023/03/16 08:43:36;;;;;;;9.45;4.65;;;;;;;18.07;42.82;99005.56;5023106;28;20025;-80
2023/03/16 08:46:04;;;;;;;8.15;5.13;;;;;;;18.56;42.38;99035.97;5034103;28;20087;-80
2023/03/16 08:48:30;;;;;;;6.72;4.32;;;;;;;19.56;41.72;99036.00;5018028;28;20010;-81
2023/03/16 08:50:55;;;;;;;9.25;5.20;;;;;;;20.00;39.47;99019.50;5017300;28;20029;-81
2023/03/16 08:53:21;;;;;;;13.63;5.60;;;;;;;21.76;37.92;98996.44;5036264;28;20171;-85
2023/03/16 08:55:47;;;;;;;16.23;7.05;;;;;;;21.27;37.54;98999.53;5017164;28;20033;-81
2023/03/16 08:58:14;;;;;;;12.40;6.18;;;;;;;19.85;38.95;99017.44;5029888;28;20026;-73
2023/03/16 09:00:40;;;;;;;7.95;4.78;;;;;;;20.10;39.04;99025.09;5026106;28;20040;-72
2023/03/16 09:03:06;;;;;;;7.32;4.68;;;;;;;20.41;38.38;99011.59;5034294;28;20025;-81
2023/03/16 09:05:33;;;;;;;5.88;4.18;;;;;;;20.03;39.08;99014.31;5014796;28;20116;-82
2023/03/16 09:08:02;;;;;;;7.60;4.88;;;;;;;21.76;36.72;98996.44;5019714;28;20053;-83
2023/03/16 09:10:28;;;;;;;7.43;4.18;;;;;;;21.15;36.98;99019.84;5033745;28;20021;-74
2023/03/16 09:12:54;;;;;;;5.43;4.07;;;;;;;21.82;36.36;98995.31;5011318;28;20578;-78
2023/03/16 09:15:20;;;;;;;5.28;4.25;;;;;;;20.79;36.93;98981.13;5031527;28;20025;-75
2023/03/16 09:17:46;;;;;;;7.32;4.90;;;;;;;20.98;37.88;99000.75;5011837;28;20025;-78
2023/03/16 09:20:16;;;;;;;7.30;4.47;;;;;;;22.00;35.96;98997.56;5015060;28;20026;-78
2023/03/16 09:22:41;;;;;;;6.47;3.58;;;;;;;21.70;35.45;99000.28;5011225;28;20025;-79
2023/03/16 09:25:09;;;;;;;7.18;4.40;;;;;;;20.21;37.49;99015.84;5012533;28;20026;-80
2023/03/16 09:27:36;;;;;;;5.88;4.20;;;;;;;16.73;42.84;99025.78;5023118;28;20087;-83
2023/03/16 09:30:06;;;;;;;11.57;4.90;;;;;;;15.63;45.69;99027.91;5029444;28;20039;-83
2023/03/16 09:32:32;;;;;;;9.45;4.85;;;;;;;15.01;46.85;99008.13;5042675;28;20075;-84
2023/03/16 09:34:58;;;;;;;8.80;4.63;;;;;;;15.00;46.49;99001.84;5007432;28;20028;-83
2023/03/16 09:37:24;;;;;;;12.23;4.97;;;;;;;15.05;48.08;99015.63;5020458;28;20100;-87
2023/03/16 09:39:50;;;;;;;11.15;4.95;;;;;;;15.00;47.66;99012.75;5020574;28;20025;-80
2023/03/16 09:42:37;;;;;;;7.80;4.30;;;;;;;13.23;51.20;99014.66;5019206;28;20040;-78
2023/03/16 09:45:35;;;;;;;6.95;4.47;;;;;;;13.19;51.62;99003.41;5016456;28;20080;-79
2023/03/16 09:48:03;;;;;;;9.25;4.05;;;;;;;13.00;52.42;98998.91;4998677;28;20284;-78
2023/03/16 09:50:37;;;;;;;6.28;3.58;;;;;;;12.78;52.86;98988.28;5012808;28;20052;-82
2023/03/16 09:53:24;;;;;;;9.43;3.90;;;;;;;14.22;50.92;98992.31;5014551;28;20116;-79
2023/03/16 09:56:02;;;;;;;6.53;4.00;;;;;;;15.22;48.58;98971.41;5030649;28;20040;-75
2023/03/16 09:58:27;;;;;;;8.13;3.92;;;;;;;15.48;48.00;98979.25;5017375;28;20017;-75
2023/03/16 10:01:19;;;;;;;4.65;3.13;;;;;;;17.18;44.97;98997.81;5011740;28;20036;-71
2023/03/16 10:03:58;;;;;;;6.32;3.50;;;;;;;17.99;43.13;98981.34;5019257;28;20048;-71
2023/03/16 10:06:25;;;;;;;5.53;3.55;;;;;;;18.20;41.94;98988.00;5019800;28;20091;-72
2023/03/16 10:08:54;;;;;;;9.98;3.50;;;;;;;17.84;42.44;98985.50;5026233;28;20125;-71
2023/03/16 10:11:29;;;;;;;6.38;3.75;;;;;;;17.94;42.93;98993.03;5029829;28;20029;-71
2023/03/16 10:14:10;;;;;;;6.55;3.63;;;;;;;17.60;43.37;98992.09;5035012;28;20044;-71
2023/03/16 10:16:46;;;;;;;7.03;3.58;;;;;;;16.90;43.82;98985.78;5027719;28;20026;-71
2023/03/16 10:19:28;;;;;;;5.47;3.28;;;;;;;17.11;44.11;98965.16;5030906;28;20527;-71
2023/03/16 10:21:56;;;;;;;9.93;3.70;;;;;;;18.09;41.92;98974.13;5025815;28;20132;-71
2023/03/16 10:24:47;;;;;;;7.00;3.20;;;;;;;17.88;42.37;98983.06;5019296;28;20025;-71
2023/03/16 10:27:43;;;;;;;5.50;3.13;;;;;;;16.83;43.95;98966.75;5004680;28;20034;-74
2023/03/16 10:30:18;;;;;;;5.40;3.22;;;;;;;15.76;46.11;98973.19;5023509;28;20041;-74
2023/03/16 10:32:44;;;;;;;7.28;3.13;;;;;;;15.11;46.93;98960.19;5024571;28;20368;-75
2023/03/16 10:35:28;;;;;;;5.55;2.90;;;;;;;15.52;47.28;98955.88;5028022;28;20391;-74
2023/03/16 10:37:55;;;;;;;5.50;2.90;;;;;;;15.06;46.54;98954.63;5013083;28;20453;-74
2023/03/16 10:40:22;;;;;;;4.32;2.83;;;;;;;14.60;47.48;98942.38;5012608;28;20136;-74
2023/03/16 10:42:48;;;;;;;3.17;2.55;;;;;;;14.20;47.72;98940.03;5026596;28;20205;-73
2023/03/16 10:45:30;;;;;;;4.00;2.47;;;;;;;14.66;47.27;98949.63;5007985;28;20022;-75
2023/03/16 10:48:13;;;;;;;7.50;2.40;;;;;;;16.34;45.53;98951.69;5010629;28;20044;-76
2023/03/16 10:50:40;;;;;;;6.95;2.80;;;;;;;16.00;45.43;98945.94;5017746;28;20032;-78
2023/03/16 10:53:17;;;;;;;6.97;2.20;;;;;;;17.73;42.89;98945.28;5015452;28;20128;-76
2023/03/16 10:55:44;;;;;;;6.82;2.97;;;;;;;17.35;41.89;98940.47;5013481;28;20017;-76
2023/03/16 10:58:21;;;;;;;3.50;2.20;;;;;;;18.01;41.79;98943.59;5015314;28;20037;-76
2023/03/16 11:00:46;;;;;;;6.07;2.63;;;;;;;18.11;41.50;98955.56;5012388;28;20017;-75
2023/03/16 11:03:23;;;;;;;5.32;2.35;;;;;;;18.75;40.00;98932.41;5031021;28;20037;-76
2023/03/16 11:06:01;;;;;;;5.63;2.78;;;;;;;19.14;39.66;98940.59;5015999;28;20037;-76
2023/03/16 11:08:30;;;;;;;3.35;2.17;;;;;;;19.28;39.56;98933.63;5012532;28;20973;-76
2023/03/16 11:10:58;;;;;;;4.47;2.20;;;;;;;18.86;39.30;98945.16;5031076;28;20052;-75
2023/03/16 11:13:32;;;;;;;3.50;2.17;;;;;;;19.76;37.46;98920.97;5027597;28;20435;-75
2023/03/16 11:16:15;;;;;;;3.75;2.00;;;;;;;20.84;35.97;98935.50;5009626;28;20446;-75
2023/03/16 11:18:43;;;;;;;4.63;1.90;;;;;;;21.64;35.20;98927.81;5012567;28;20162;-83
2023/03/16 11:21:33;;;;;;;4.57;2.38;;;;;;;22.04;34.67;98917.97;5018212;28;20017;-76
2023/03/16 11:24:02;;;;;;;3.53;2.10;;;;;;;20.27;36.13;98915.88;5030355;28;20079;-77
2023/03/16 11:26:34;;;;;;;;;;;;;;;20.25;36.88;98911.75;5032324;28;20048;-77
2023/03/16 11:29:26;;;;;;;3.97;1.50;;;;;;;22.12;34.18;98911.06;5012375;28;20276;-77